sensor_id;sensor_type;location;lat;lon;timestamp;P1;durP1;ratioP1;P2;durP2;ratioP2
28605;SDS011;46498;49.968;7.754;2023-03-24T00:00:44;14.27;;;7.55;;
28605;SDS011;46498;49.968;7.754;2023-03-24T00:05:45;12.48;;;7.47;;
28605;SDS011;46498;49.968;7.754;2023-03-24T00:10:49;12.65;;;7.07;;
28605;SDS011;46498;49.968;7.754;2023-03-24T00:20:54;10.13;;;6.18;;
28605;SDS011;46498;49.968;7.754;2023-03-24T00:26:02;11.45;;;6.85;;
28605;SDS011;46498;49.968;7.754;2023-03-24T00:31:05;13.18;;;7.47;;
28605;SDS011;46498;49.968;7.754;2023-03-24T00:41:13;12.37;;;7.22;;
28605;SDS011;46498;49.968;7.754;2023-03-24T00:46:17;16.35;;;7.30;;
28605;SDS011;46498;49.968;7.754;2023-03-24T00:51:39;12.65;;;6.93;;
28605;SDS011;46498;49.968;7.754;2023-03-24T00:56:41;12.13;;;8.40;;
28605;SDS011;46498;49.968;7.754;2023-03-24T01:01:43;12.70;;;7.45;;
28605;SDS011;46498;49.968;7.754;2023-03-24T01:06:47;14.38;;;8.27;;
28605;SDS011;46498;49.968;7.754;2023-03-24T01:11:49;16.00;;;9.05;;
28605;SDS011;46498;49.968;7.754;2023-03-24T01:16:50;14.52;;;8.50;;
28605;SDS011;46498;49.968;7.754;2023-03-24T01:21:52;18.67;;;9.02;;
28605;SDS011;46498;49.968;7.754;2023-03-24T01:26:53;13.57;;;7.15;;
28605;SDS011;46498;49.968;7.754;2023-03-24T01:31:54;11.57;;;7.37;;
28605;SDS011;46498;49.968;7.754;2023-03-24T01:36:56;16.95;;;7.93;;
28605;SDS011;46498;49.968;7.754;2023-03-24T01:41:57;15.35;;;8.00;;
28605;SDS011;46498;49.968;7.754;2023-03-24T01:46:58;12.10;;;7.35;;
28605;SDS011;46498;49.968;7.754;2023-03-24T01:52:02;10.80;;;7.00;;
28605;SDS011;46498;49.968;7.754;2023-03-24T01:57:09;11.38;;;6.78;;
28605;SDS011;46498;49.968;7.754;2023-03-24T02:02:15;15.65;;;7.93;;
28605;SDS011;46498;49.968;7.754;2023-03-24T02:07:33;13.90;;;7.80;;
28605;SDS011;46498;49.968;7.754;2023-03-24T02:12:49;16.23;;;7.68;;
28605;SDS011;46498;49.968;7.754;2023-03-24T02:18:13;13.43;;;7.35;;
28605;SDS011;46498;49.968;7.754;2023-03-24T02:23:56;16.40;;;8.23;;
28605;SDS011;46498;49.968;7.754;2023-03-24T02:43:15;13.98;;;8.40;;
28605;SDS011;46498;49.968;7.754;2023-03-24T02:48:35;12.73;;;7.90;;
28605;SDS011;46498;49.968;7.754;2023-03-24T02:54:17;22.52;;;9.20;;
28605;SDS011;46498;49.968;7.754;2023-03-24T03:00:49;15.00;;;9.63;;
28605;SDS011;46498;49.968;7.754;2023-03-24T03:07:07;17.60;;;9.95;;
28605;SDS011;46498;49.968;7.754;2023-03-24T03:12:11;18.90;;;10.55;;
28605;SDS011;46498;49.968;7.754;2023-03-24T03:17:15;22.03;;;11.47;;
28605;SDS011;46498;49.968;7.754;2023-03-24T03:22:23;24.35;;;11.40;;
28605;SDS011;46498;49.968;7.754;2023-03-24T03:27:29;17.77;;;10.98;;
28605;SDS011;46498;49.968;7.754;2023-03-24T03:32:39;18.55;;;11.20;;
28605;SDS011;46498;49.968;7.754;2023-03-24T03:39:17;16.60;;;10.60;;
28605;SDS011;46498;49.968;7.754;2023-03-24T03:44:30;24.08;;;12.93;;
28605;SDS011;46498;49.968;7.754;2023-03-24T03:49:31;22.60;;;12.57;;
28605;SDS011;46498;49.968;7.754;2023-03-24T03:54:32;18.85;;;11.52;;
28605;SDS011;46498;49.968;7.754;2023-03-24T03:59:35;18.58;;;11.82;;
28605;SDS011;46498;49.968;7.754;2023-03-24T04:05:09;19.73;;;11.77;;
28605;SDS011;46498;49.968;7.754;2023-03-24T04:11:53;17.55;;;9.55;;
28605;SDS011;46498;49.968;7.754;2023-03-24T04:21:09;19.60;;;8.53;;
28605;SDS011;46498;49.968;7.754;2023-03-24T04:26:30;13.73;;;7.53;;
28605;SDS011;46498;49.968;7.754;2023-03-24T04:31:58;11.65;;;7.72;;
28605;SDS011;46498;49.968;7.754;2023-03-24T04:37:05;11.12;;;7.45;;
28605;SDS011;46498;49.968;7.754;2023-03-24T04:47:23;12.93;;;6.85;;
28605;SDS011;46498;49.968;7.754;2023-03-24T04:52:44;14.03;;;7.53;;
28605;SDS011;46498;49.968;7.754;2023-03-24T04:57:46;9.45;;;6.10;;
28605;SDS011;46498;49.968;7.754;2023-03-24T05:02:47;11.75;;;6.07;;
28605;SDS011;46498;49.968;7.754;2023-03-24T05:07:55;7.47;;;4.57;;
28605;SDS011;46498;49.968;7.754;2023-03-24T05:12:56;8.30;;;4.25;;
28605;SDS011;46498;49.968;7.754;2023-03-24T05:18:16;9.95;;;4.30;;
28605;SDS011;46498;49.968;7.754;2023-03-24T05:23:17;6.53;;;3.85;;
28605;SDS011;46498;49.968;7.754;2023-03-24T05:28:18;9.10;;;3.60;;
28605;SDS011;46498;49.968;7.754;2023-03-24T05:33:21;6.50;;;3.72;;
28605;SDS011;46498;49.968;7.754;2023-03-24T05:38:22;5.35;;;3.70;;
28605;SDS011;46498;49.968;7.754;2023-03-24T05:43:26;4.22;;;2.22;;
28605;SDS011;46498;49.968;7.754;2023-03-24T05:48:44;2.95;;;2.17;;
28605;SDS011;46498;49.968;7.754;2023-03-24T05:53:49;3.90;;;1.55;;
28605;SDS011;46498;49.968;7.754;2023-03-24T05:58:55;2.40;;;1.55;;
28605;SDS011;46498;49.968;7.754;2023-03-24T06:03:57;3.70;;;1.30;;
28605;SDS011;46498;49.968;7.754;2023-03-24T06:08:58;2.45;;;1.30;;
28605;SDS011;46498;49.968;7.754;2023-03-24T06:14:02;3.95;;;1.23;;
28605;SDS011;46498;49.968;7.754;2023-03-24T06:19:09;3.00;;;1.10;;
28605;SDS011;46498;49.968;7.754;2023-03-24T06:24:29;4.28;;;1.60;;
28605;SDS011;46498;49.968;7.754;2023-03-24T06:29:36;2.42;;;1.00;;
28605;SDS011;46498;49.968;7.754;2023-03-24T06:34:38;3.15;;;0.98;;
28605;SDS011;46498;49.968;7.754;2023-03-24T06:40:41;2.93;;;1.00;;
28605;SDS011;46498;49.968;7.754;2023-03-24T06:45:43;4.70;;;1.10;;
28605;SDS011;46498;49.968;7.754;2023-03-24T06:50:51;1.98;;;0.77;;
28605;SDS011;46498;49.968;7.754;2023-03-24T06:55:53;1.12;;;0.90;;
28605;SDS011;46498;49.968;7.754;2023-03-24T07:00:58;1.55;;;1.00;;
28605;SDS011;46498;49.968;7.754;2023-03-24T07:06:06;2.55;;;1.00;;
28605;SDS011;46498;49.968;7.754;2023-03-24T07:11:07;3.37;;;0.80;;
28605;SDS011;46498;49.968;7.754;2023-03-24T07:16:10;1.20;;;0.62;;
28605;SDS011;46498;49.968;7.754;2023-03-24T07:21:12;0.90;;;0.70;;
28605;SDS011;46498;49.968;7.754;2023-03-24T07:26:13;1.70;;;0.75;;
28605;SDS011;46498;49.968;7.754;2023-03-24T07:31:28;2.45;;;1.15;;
28605;SDS011;46498;49.968;7.754;2023-03-24T07:36:33;2.17;;;0.70;;
28605;SDS011;46498;49.968;7.754;2023-03-24T07:41:34;3.20;;;0.80;;
28605;SDS011;46498;49.968;7.754;2023-03-24T07:46:38;1.65;;;1.00;;
28605;SDS011;46498;49.968;7.754;2023-03-24T07:51:40;3.03;;;0.88;;
28605;SDS011;46498;49.968;7.754;2023-03-24T07:56:59;1.62;;;0.85;;
28605;SDS011;46498;49.968;7.754;2023-03-24T08:02:01;3.67;;;1.60;;
28605;SDS011;46498;49.968;7.754;2023-03-24T08:07:17;4.30;;;2.37;;
28605;SDS011;46498;49.968;7.754;2023-03-24T08:12:19;5.25;;;1.85;;
28605;SDS011;46498;49.968;7.754;2023-03-24T08:17:21;3.80;;;1.12;;
28605;SDS011;46498;49.968;7.754;2023-03-24T08:22:22;4.80;;;1.30;;
28605;SDS011;46498;49.968;7.754;2023-03-24T08:27:22;3.15;;;1.10;;
28605;SDS011;46498;49.968;7.754;2023-03-24T08:32:24;2.85;;;0.80;;
28605;SDS011;46498;49.968;7.754;2023-03-24T08:37:25;1.40;;;0.77;;
28605;SDS011;46498;49.968;7.754;2023-03-24T08:42:26;3.70;;;1.10;;
28605;SDS011;46498;49.968;7.754;2023-03-24T08:47:27;2.42;;;0.60;;
28605;SDS011;46498;49.968;7.754;2023-03-24T08:52:29;2.10;;;0.90;;
28605;SDS011;46498;49.968;7.754;2023-03-24T08:57:31;1.87;;;0.70;;
28605;SDS011;46498;49.968;7.754;2023-03-24T09:02:35;2.08;;;0.60;;
28605;SDS011;46498;49.968;7.754;2023-03-24T09:07:36;1.35;;;0.57;;
28605;SDS011;46498;49.968;7.754;2023-03-24T09:12:37;0.60;;;0.50;;
28605;SDS011;46498;49.968;7.754;2023-03-24T09:17:39;3.05;;;0.65;;
28605;SDS011;46498;49.968;7.754;2023-03-24T09:22:41;2.17;;;0.60;;
28605;SDS011;46498;49.968;7.754;2023-03-24T09:27:44;2.42;;;0.80;;
28605;SDS011;46498;49.968;7.754;2023-03-24T09:32:46;5.12;;;0.90;;
28605;SDS011;46498;49.968;7.754;2023-03-24T09:37:46;5.90;;;0.85;;
28605;SDS011;46498;49.968;7.754;2023-03-24T09:49:32;5.32;;;0.95;;
28605;SDS011;46498;49.968;7.754;2023-03-24T09:54:45;3.37;;;0.88;;
28605;SDS011;46498;49.968;7.754;2023-03-24T09:59:52;4.03;;;1.17;;
28605;SDS011;46498;49.968;7.754;2023-03-24T10:04:53;2.78;;;0.60;;
28605;SDS011;46498;49.968;7.754;2023-03-24T10:09:55;3.17;;;0.70;;
28605;SDS011;46498;49.968;7.754;2023-03-24T10:15:03;5.55;;;1.23;;
28605;SDS011;46498;49.968;7.754;2023-03-24T10:21:39;5.35;;;0.77;;
28605;SDS011;46498;49.968;7.754;2023-03-24T10:27:01;5.55;;;1.05;;
28605;SDS011;46498;49.968;7.754;2023-03-24T10:33:39;4.53;;;0.90;;
28605;SDS011;46498;49.968;7.754;2023-03-24T10:38:43;11.35;;;1.80;;
28605;SDS011;46498;49.968;7.754;2023-03-24T10:43:46;5.60;;;0.82;;
28605;SDS011;46498;49.968;7.754;2023-03-24T10:48:49;7.87;;;1.20;;
28605;SDS011;46498;49.968;7.754;2023-03-24T10:54:26;8.85;;;1.30;;
28605;SDS011;46498;49.968;7.754;2023-03-24T10:59:30;5.75;;;1.60;;
28605;SDS011;46498;49.968;7.754;2023-03-24T11:04:37;8.95;;;1.58;;
28605;SDS011;46498;49.968;7.754;2023-03-24T11:09:41;9.57;;;1.48;;
28605;SDS011;46498;49.968;7.754;2023-03-24T11:14:46;5.82;;;1.70;;
28605;SDS011;46498;49.968;7.754;2023-03-24T11:19:54;4.87;;;0.93;;
28605;SDS011;46498;49.968;7.754;2023-03-24T11:24:56;6.90;;;1.10;;
28605;SDS011;46498;49.968;7.754;2023-03-24T11:29:57;5.43;;;1.08;;
28605;SDS011;46498;49.968;7.754;2023-03-24T11:35:00;8.98;;;1.10;;
28605;SDS011;46498;49.968;7.754;2023-03-24T11:40:15;3.30;;;1.02;;
28605;SDS011;46498;49.968;7.754;2023-03-24T11:45:19;9.52;;;2.20;;
28605;SDS011;46498;49.968;7.754;2023-03-24T11:51:55;8.70;;;1.80;;
28605;SDS011;46498;49.968;7.754;2023-03-24T11:56:57;7.20;;;1.05;;
28605;SDS011;46498;49.968;7.754;2023-03-24T12:02:08;7.75;;;1.35;;
28605;SDS011;46498;49.968;7.754;2023-03-24T12:22:03;10.23;;;1.75;;
28605;SDS011;46498;49.968;7.754;2023-03-24T12:36:12;6.43;;;1.10;;
28605;SDS011;46498;49.968;7.754;2023-03-24T12:55:04;7.12;;;1.35;;
28605;SDS011;46498;49.968;7.754;2023-03-24T13:00:22;6.87;;;1.50;;
28605;SDS011;46498;49.968;7.754;2023-03-24T13:05:32;8.27;;;1.02;;
28605;SDS011;46498;49.968;7.754;2023-03-24T13:10:37;10.40;;;1.45;;
28605;SDS011;46498;49.968;7.754;2023-03-24T13:16:14;7.30;;;1.27;;
28605;SDS011;46498;49.968;7.754;2023-03-24T13:21:22;3.78;;;0.95;;
28605;SDS011;46498;49.968;7.754;2023-03-24T13:26:39;4.62;;;1.08;;
28605;SDS011;46498;49.968;7.754;2023-03-24T13:31:58;5.82;;;1.42;;
28605;SDS011;46498;49.968;7.754;2023-03-24T13:37:05;5.37;;;0.93;;
28605;SDS011;46498;49.968;7.754;2023-03-24T13:42:31;5.10;;;1.15;;
28605;SDS011;46498;49.968;7.754;2023-03-24T13:47:46;7.12;;;1.23;;
28605;SDS011;46498;49.968;7.754;2023-03-24T13:52:49;8.70;;;1.85;;
28605;SDS011;46498;49.968;7.754;2023-03-24T13:57:57;5.20;;;1.12;;
28605;SDS011;46498;49.968;7.754;2023-03-24T14:03:12;8.18;;;1.02;;
28605;SDS011;46498;49.968;7.754;2023-03-24T14:08:16;8.20;;;1.85;;
28605;SDS011;46498;49.968;7.754;2023-03-24T14:13:18;6.97;;;1.20;;
28605;SDS011;46498;49.968;7.754;2023-03-24T14:23:44;5.22;;;1.00;;
28605;SDS011;46498;49.968;7.754;2023-03-24T14:28:52;4.93;;;1.17;;
28605;SDS011;46498;49.968;7.754;2023-03-24T14:33:57;8.50;;;1.95;;
28605;SDS011;46498;49.968;7.754;2023-03-24T14:39:47;8.43;;;2.47;;
28605;SDS011;46498;49.968;7.754;2023-03-24T14:44:53;4.37;;;1.02;;
28605;SDS011;46498;49.968;7.754;2023-03-24T14:50:00;5.85;;;1.10;;
28605;SDS011;46498;49.968;7.754;2023-03-24T14:55:11;6.55;;;1.05;;
28605;SDS011;46498;49.968;7.754;2023-03-24T15:00:38;5.78;;;1.30;;
28605;SDS011;46498;49.968;7.754;2023-03-24T15:06:02;6.60;;;1.35;;
28605;SDS011;46498;49.968;7.754;2023-03-24T15:11:19;6.62;;;1.10;;
28605;SDS011;46498;49.968;7.754;2023-03-24T15:16:29;7.40;;;1.77;;
28605;SDS011;46498;49.968;7.754;2023-03-24T15:21:38;6.07;;;1.60;;
28605;SDS011;46498;49.968;7.754;2023-03-24T15:26:46;7.30;;;1.30;;
28605;SDS011;46498;49.968;7.754;2023-03-24T15:31:55;7.22;;;1.98;;
28605;SDS011;46498;49.968;7.754;2023-03-24T15:36:57;7.87;;;1.50;;
28605;SDS011;46498;49.968;7.754;2023-03-24T15:42:05;5.75;;;1.30;;
28605;SDS011;46498;49.968;7.754;2023-03-24T15:47:16;6.05;;;1.12;;
28605;SDS011;46498;49.968;7.754;2023-03-24T15:52:32;7.68;;;1.30;;
28605;SDS011;46498;49.968;7.754;2023-03-24T15:57:36;8.02;;;1.30;;
28605;SDS011;46498;49.968;7.754;2023-03-24T16:02:47;7.93;;;1.27;;
28605;SDS011;46498;49.968;7.754;2023-03-24T16:07:52;8.02;;;0.93;;
28605;SDS011;46498;49.968;7.754;2023-03-24T16:12:55;6.28;;;1.25;;
28605;SDS011;46498;49.968;7.754;2023-03-24T16:17:56;3.58;;;0.93;;
28605;SDS011;46498;49.968;7.754;2023-03-24T16:22:58;8.73;;;1.37;;
28605;SDS011;46498;49.968;7.754;2023-03-24T16:27:58;8.68;;;1.10;;
28605;SDS011;46498;49.968;7.754;2023-03-24T16:32:59;8.75;;;1.52;;
28605;SDS011;46498;49.968;7.754;2023-03-24T16:38:00;5.28;;;1.42;;
28605;SDS011;46498;49.968;7.754;2023-03-24T16:43:01;7.45;;;1.00;;
28605;SDS011;46498;49.968;7.754;2023-03-24T16:48:02;8.15;;;1.12;;
28605;SDS011;46498;49.968;7.754;2023-03-24T16:53:04;4.47;;;0.80;;
28605;SDS011;46498;49.968;7.754;2023-03-24T16:58:05;6.20;;;1.27;;
28605;SDS011;46498;49.968;7.754;2023-03-24T17:03:06;6.90;;;0.90;;
28605;SDS011;46498;49.968;7.754;2023-03-24T17:08:07;8.43;;;1.40;;
28605;SDS011;46498;49.968;7.754;2023-03-24T17:13:17;11.23;;;1.48;;
28605;SDS011;46498;49.968;7.754;2023-03-24T17:18:20;4.37;;;1.02;;
28605;SDS011;46498;49.968;7.754;2023-03-24T17:23:21;11.27;;;1.73;;
28605;SDS011;46498;49.968;7.754;2023-03-24T17:28:22;6.53;;;1.75;;
28605;SDS011;46498;49.968;7.754;2023-03-24T17:33:23;11.65;;;2.70;;
28605;SDS011;46498;49.968;7.754;2023-03-24T17:38:24;10.90;;;1.83;;
28605;SDS011;46498;49.968;7.754;2023-03-24T17:43:25;11.82;;;2.62;;
28605;SDS011;46498;49.968;7.754;2023-03-24T17:48:27;6.53;;;2.00;;
28605;SDS011;46498;49.968;7.754;2023-03-24T17:53:28;10.20;;;2.50;;
28605;SDS011;46498;49.968;7.754;2023-03-24T17:58:33;10.55;;;2.12;;
28605;SDS011;46498;49.968;7.754;2023-03-24T18:03:35;10.10;;;2.80;;
28605;SDS011;46498;49.968;7.754;2023-03-24T18:08:37;11.60;;;1.93;;
28605;SDS011;46498;49.968;7.754;2023-03-24T18:13:39;5.75;;;1.48;;
28605;SDS011;46498;49.968;7.754;2023-03-24T18:18:41;12.20;;;2.30;;
28605;SDS011;46498;49.968;7.754;2023-03-24T18:23:46;12.85;;;2.33;;
28605;SDS011;46498;49.968;7.754;2023-03-24T18:28:47;11.98;;;2.15;;
28605;SDS011;46498;49.968;7.754;2023-03-24T18:33:49;11.45;;;2.30;;
28605;SDS011;46498;49.968;7.754;2023-03-24T18:38:53;10.70;;;2.05;;
28605;SDS011;46498;49.968;7.754;2023-03-24T18:43:59;12.15;;;2.60;;
28605;SDS011;46498;49.968;7.754;2023-03-24T18:49:00;9.93;;;1.75;;
28605;SDS011;46498;49.968;7.754;2023-03-24T18:54:00;7.20;;;1.55;;
28605;SDS011;46498;49.968;7.754;2023-03-24T18:59:02;11.70;;;2.22;;
28605;SDS011;46498;49.968;7.754;2023-03-24T19:04:03;10.25;;;2.53;;
28605;SDS011;46498;49.968;7.754;2023-03-24T19:09:04;8.25;;;1.50;;
28605;SDS011;46498;49.968;7.754;2023-03-24T19:14:05;6.80;;;1.60;;
28605;SDS011;46498;49.968;7.754;2023-03-24T19:19:07;7.28;;;1.37;;
28605;SDS011;46498;49.968;7.754;2023-03-24T19:24:09;10.27;;;2.57;;
28605;SDS011;46498;49.968;7.754;2023-03-24T19:29:10;6.50;;;1.30;;
28605;SDS011;46498;49.968;7.754;2023-03-24T19:34:11;10.10;;;1.90;;
28605;SDS011;46498;49.968;7.754;2023-03-24T19:39:12;11.45;;;1.50;;
28605;SDS011;46498;49.968;7.754;2023-03-24T19:44:16;8.55;;;1.45;;
28605;SDS011;46498;49.968;7.754;2023-03-24T19:49:17;8.35;;;1.40;;
28605;SDS011;46498;49.968;7.754;2023-03-24T19:54:18;10.75;;;1.87;;
28605;SDS011;46498;49.968;7.754;2023-03-24T19:59:19;7.57;;;1.50;;
28605;SDS011;46498;49.968;7.754;2023-03-24T20:04:20;9.15;;;2.05;;
28605;SDS011;46498;49.968;7.754;2023-03-24T20:09:22;9.05;;;1.87;;
28605;SDS011;46498;49.968;7.754;2023-03-24T20:14:23;10.75;;;2.25;;
28605;SDS011;46498;49.968;7.754;2023-03-24T20:19:24;6.28;;;1.90;;
28605;SDS011;46498;49.968;7.754;2023-03-24T20:24:25;11.68;;;1.92;;
28605;SDS011;46498;49.968;7.754;2023-03-24T20:29:26;10.43;;;2.80;;
28605;SDS011;46498;49.968;7.754;2023-03-24T20:34:27;7.62;;;1.85;;
28605;SDS011;46498;49.968;7.754;2023-03-24T20:39:28;10.60;;;3.08;;
28605;SDS011;46498;49.968;7.754;2023-03-24T20:44:30;4.40;;;0.70;;
28605;SDS011;46498;49.968;7.754;2023-03-24T20:49:31;3.37;;;0.85;;
28605;SDS011;46498;49.968;7.754;2023-03-24T20:54:32;1.02;;;0.28;;
28605;SDS011;46498;49.968;7.754;2023-03-24T20:59:33;0.82;;;0.22;;
28605;SDS011;46498;49.968;7.754;2023-03-24T21:04:35;0.62;;;0.20;;
28605;SDS011;46498;49.968;7.754;2023-03-24T21:09:36;0.32;;;0.20;;
28605;SDS011;46498;49.968;7.754;2023-03-24T21:14:37;0.80;;;0.30;;
28605;SDS011;46498;49.968;7.754;2023-03-24T21:19:37;1.73;;;0.20;;
28605;SDS011;46498;49.968;7.754;2023-03-24T21:24:39;0.35;;;0.20;;
28605;SDS011;46498;49.968;7.754;2023-03-24T21:29:40;1.30;;;0.30;;
28605;SDS011;46498;49.968;7.754;2023-03-24T21:34:41;1.62;;;0.50;;
28605;SDS011;46498;49.968;7.754;2023-03-24T21:39:42;0.70;;;0.50;;
28605;SDS011;46498;49.968;7.754;2023-03-24T21:44:43;1.62;;;0.28;;
28605;SDS011;46498;49.968;7.754;2023-03-24T21:49:45;1.25;;;0.60;;
28605;SDS011;46498;49.968;7.754;2023-03-24T21:54:48;1.15;;;0.22;;
28605;SDS011;46498;49.968;7.754;2023-03-24T21:59:49;2.75;;;1.02;;
28605;SDS011;46498;49.968;7.754;2023-03-24T22:04:50;2.00;;;0.80;;
28605;SDS011;46498;49.968;7.754;2023-03-24T22:09:51;1.85;;;0.50;;
28605;SDS011;46498;49.968;7.754;2023-03-24T22:14:53;2.78;;;0.45;;
28605;SDS011;46498;49.968;7.754;2023-03-24T22:19:54;3.30;;;0.62;;
28605;SDS011;46498;49.968;7.754;2023-03-24T22:24:55;3.78;;;0.25;;
28605;SDS011;46498;49.968;7.754;2023-03-24T22:29:56;2.78;;;0.30;;
28605;SDS011;46498;49.968;7.754;2023-03-24T22:34:57;1.25;;;0.20;;
28605;SDS011;46498;49.968;7.754;2023-03-24T22:39:58;3.22;;;0.30;;
28605;SDS011;46498;49.968;7.754;2023-03-24T22:44:59;2.08;;;0.20;;
28605;SDS011;46498;49.968;7.754;2023-03-24T22:50:00;0.20;;;0.10;;
28605;SDS011;46498;49.968;7.754;2023-03-24T22:55:01;2.12;;;0.13;;
28605;SDS011;46498;49.968;7.754;2023-03-24T23:00:03;1.12;;;0.22;;
28605;SDS011;46498;49.968;7.754;2023-03-24T23:05:05;1.23;;;0.30;;
28605;SDS011;46498;49.968;7.754;2023-03-24T23:10:06;2.87;;;0.30;;
28605;SDS011;46498;49.968;7.754;2023-03-24T23:15:08;1.55;;;0.50;;
28605;SDS011;46498;49.968;7.754;2023-03-24T23:20:10;1.95;;;0.40;;
28605;SDS011;46498;49.968;7.754;2023-03-24T23:25:12;2.67;;;0.20;;
28605;SDS011;46498;49.968;7.754;2023-03-24T23:30:14;1.10;;;0.10;;
28605;SDS011;46498;49.968;7.754;2023-03-24T23:35:15;2.87;;;0.15;;
28605;SDS011;46498;49.968;7.754;2023-03-24T23:40:16;2.20;;;0.30;;
28605;SDS011;46498;49.968;7.754;2023-03-24T23:45:18;1.42;;;0.70;;
28605;SDS011;46498;49.968;7.754;2023-03-24T23:50:19;2.53;;;0.32;;
28605;SDS011;46498;49.968;7.754;2023-03-24T23:55:21;7.65;;;1.50;;
